Terminal Aerodrome Forecast
Issued by NWS Louisville, KY

Home | Current Version | Previous Version | Text Only | Print | Product List | Glossary On
Versions: 1 2 3 4 5 6 7 8 9 10 11 12 13 14 15 16 17 18 19 20
930
FTUS43 KLMK 240851 AAC
TAFLEX
TAF AMD
KLEX 240851Z 2409/2506 VRB03KT 2SM BR SCT002
      TEMPO 2409/2413 00000KT 1/4SM FG VV001
     FM241400 28011G17KT P6SM FEW050 SCT250
     FM250000 28005KT P6SM FEW250=

USA.gov is the U.S. government's official web portal to all federal, state and local government web resources and services.